createdAt,value
2017-05-21T00:00:23.164Z,23.53
2017-05-21T00:02:49.856Z,23.72
2017-05-21T00:05:16.570Z,23.88
2017-05-21T00:07:43.254Z,25.02
2017-05-21T00:10:09.945Z,23.85
2017-05-21T00:12:36.625Z,24.60
2017-05-21T00:15:03.324Z,26.80
2017-05-21T00:17:30.037Z,24.88
2017-05-21T00:19:56.720Z,25.22
2017-05-21T00:22:23.434Z,25.65
2017-05-21T00:24:50.128Z,25.47
2017-05-21T00:27:16.837Z,24.58
2017-05-21T00:29:43.529Z,24.78
2017-05-21T00:32:10.249Z,25.03
2017-05-21T00:34:36.945Z,25.83
2017-05-21T00:37:03.637Z,26.33
2017-05-21T00:39:30.332Z,25.25
2017-05-21T00:41:57.018Z,26.37
2017-05-21T00:44:23.729Z,26.33
2017-05-21T00:46:50.412Z,26.48
2017-05-21T00:49:17.128Z,27.03
2017-05-21T00:51:43.808Z,25.93
2017-05-21T00:54:10.523Z,25.27
2017-05-21T00:56:37.205Z,26.30
2017-05-21T00:59:03.916Z,27.40
2017-05-21T01:01:30.604Z,26.62
2017-05-21T01:03:57.289Z,27.43
2017-05-21T01:06:23.976Z,27.98
2017-05-21T01:08:50.659Z,27.60
2017-05-21T01:11:17.364Z,27.33
2017-05-21T01:13:44.056Z,25.43
2017-05-21T01:16:10.764Z,28.30
2017-05-21T01:18:37.448Z,26.28
2017-05-21T01:21:04.152Z,27.27
2017-05-21T01:23:30.848Z,28.12
2017-05-21T01:25:57.564Z,27.77
2017-05-21T01:28:24.257Z,27.12
2017-05-21T01:30:50.940Z,24.55
2017-05-21T01:33:17.631Z,26.02
2017-05-21T01:35:44.325Z,25.13
2017-05-21T01:38:11.029Z,26.30
2017-05-21T01:40:37.713Z,26.77
2017-05-21T01:43:04.424Z,27.13
2017-05-21T01:45:31.105Z,26.47
2017-05-21T01:47:57.821Z,27.28
2017-05-21T01:50:24.507Z,26.00
2017-05-21T01:52:51.205Z,28.00
2017-05-21T01:55:17.893Z,26.97
2017-05-21T01:57:44.584Z,26.98
2017-05-21T02:00:11.289Z,28.75
2017-05-21T02:02:37.969Z,27.17
2017-05-21T02:05:04.684Z,26.80
2017-05-21T02:07:31.373Z,26.40
2017-05-21T02:09:58.093Z,27.38
2017-05-21T02:12:24.781Z,27.08
2017-05-21T02:14:51.493Z,26.90
2017-05-21T02:17:18.187Z,27.27
2017-05-21T02:19:44.869Z,27.82
2017-05-21T02:22:11.565Z,28.28
2017-05-21T02:24:38.250Z,27.80
2017-05-21T02:27:04.971Z,26.63
2017-05-21T02:29:31.656Z,27.38
2017-05-21T02:31:58.360Z,26.77
2017-05-21T02:34:25.056Z,25.48
2017-05-21T02:36:51.767Z,26.88
2017-05-21T02:39:18.444Z,27.12
2017-05-21T02:41:45.140Z,27.90
2017-05-21T02:44:11.824Z,27.88
2017-05-21T02:46:38.512Z,27.63
2017-05-21T02:49:05.198Z,27.90
2017-05-21T02:51:31.883Z,28.97
2017-05-21T02:53:58.593Z,24.78
2017-05-21T02:56:25.284Z,27.60
2017-05-21T02:58:51.989Z,27.63
2017-05-21T03:01:18.676Z,30.35
2017-05-21T03:03:45.388Z,26.57
2017-05-21T03:06:12.084Z,27.97
2017-05-21T03:08:38.773Z,27.80
2017-05-21T03:11:05.459Z,25.38
2017-05-21T03:13:32.148Z,27.32
2017-05-21T03:15:58.836Z,28.03
2017-05-21T03:18:25.516Z,26.80
2017-05-21T03:20:52.243Z,25.93
2017-05-21T03:23:18.925Z,27.92
2017-05-21T03:25:45.607Z,25.97
2017-05-21T03:28:12.288Z,25.37
2017-05-21T03:30:38.976Z,26.83
2017-05-21T03:33:05.685Z,26.73
2017-05-21T03:35:32.372Z,27.28
2017-05-21T03:37:59.096Z,25.70
2017-05-21T03:40:25.781Z,25.28
2017-05-21T03:42:52.461Z,25.95
2017-05-21T03:45:19.143Z,23.48
2017-05-21T03:47:45.825Z,25.62
2017-05-21T03:50:12.532Z,26.20
2017-05-21T03:52:39.221Z,24.80
2017-05-21T03:55:05.940Z,25.05
2017-05-21T03:57:32.626Z,24.43
2017-05-21T03:59:59.340Z,24.65
2017-05-21T04:02:26.023Z,24.57
2017-05-21T04:04:52.704Z,22.78
2017-05-21T04:07:19.405Z,24.35
2017-05-21T04:09:46.099Z,23.40
2017-05-21T04:12:13.101Z,24.65
2017-05-21T04:14:39.792Z,22.78
2017-05-21T04:17:06.502Z,24.17
2017-05-21T04:19:33.191Z,24.47
2017-05-21T04:21:59.880Z,22.28
2017-05-21T04:24:27.067Z,22.12
2017-05-21T04:26:53.749Z,22.43
2017-05-21T04:29:20.430Z,22.22
2017-05-21T04:31:47.117Z,23.03
2017-05-21T04:34:13.836Z,22.38
2017-05-21T04:36:40.519Z,22.98
2017-05-21T04:39:07.240Z,23.60
2017-05-21T04:41:33.924Z,21.05
2017-05-21T04:44:00.606Z,21.65
2017-05-21T04:46:27.292Z,21.92
2017-05-21T04:48:53.977Z,20.45
2017-05-21T04:51:20.661Z,21.47
2017-05-21T04:53:47.348Z,22.10
2017-05-21T04:56:14.040Z,20.17
2017-05-21T04:58:40.985Z,18.97
2017-05-21T05:01:07.672Z,18.68
2017-05-21T05:03:34.424Z,19.67
2017-05-21T05:06:01.115Z,17.17
2017-05-21T05:08:27.801Z,18.17
2017-05-21T05:10:54.480Z,15.90
2017-05-21T05:13:21.191Z,15.07
2017-05-21T05:15:47.883Z,16.77
2017-05-21T05:18:14.595Z,15.00
2017-05-21T05:20:41.285Z,16.08
2017-05-21T05:23:08.006Z,13.78
2017-05-21T05:25:34.792Z,16.25
2017-05-21T05:28:01.528Z,14.60
2017-05-21T05:30:28.213Z,12.35
2017-05-21T05:32:55.689Z,10.78
2017-05-21T05:35:22.373Z,10.60
2017-05-21T05:37:49.054Z,9.48
2017-05-21T05:40:15.756Z,9.70
2017-05-21T05:42:42.449Z,10.24
2017-05-21T05:45:09.157Z,9.02
2017-05-21T05:47:35.837Z,9.18
2017-05-21T05:50:02.561Z,8.20
2017-05-21T05:52:29.262Z,9.12
2017-05-21T05:54:56.044Z,8.72
2017-05-21T05:57:22.741Z,8.56
2017-05-21T05:59:49.419Z,8.78
2017-05-21T06:02:16.105Z,8.02
2017-05-21T06:04:42.810Z,8.62
2017-05-21T06:07:09.524Z,9.00
2017-05-21T06:09:36.209Z,8.04
2017-05-21T06:12:02.936Z,8.42
2017-05-21T06:14:29.622Z,8.38
2017-05-21T06:16:56.340Z,8.60
2017-05-21T06:19:23.037Z,7.96
2017-05-21T06:21:49.738Z,7.82
2017-05-21T06:24:16.415Z,8.66
2017-05-21T06:26:43.105Z,7.82
2017-05-21T06:29:09.795Z,7.70
2017-05-21T06:31:36.476Z,8.10
2017-05-21T06:34:03.188Z,8.22
2017-05-21T06:36:29.867Z,7.96
2017-05-21T06:38:56.584Z,8.14
2017-05-21T06:41:23.264Z,9.10
2017-05-21T06:43:49.969Z,8.24
2017-05-21T06:46:16.652Z,9.58
2017-05-21T06:48:43.327Z,7.94
2017-05-21T06:51:10.005Z,7.72
2017-05-21T06:53:36.689Z,7.78
2017-05-21T06:56:03.369Z,8.72
2017-05-21T06:58:30.053Z,8.04
2017-05-21T07:00:56.769Z,8.32
2017-05-21T07:03:23.440Z,6.84
2017-05-21T07:05:50.124Z,7.70
2017-05-21T07:08:18.142Z,8.02
2017-05-21T07:10:45.182Z,8.40
2017-05-21T07:13:11.871Z,7.64
2017-05-21T07:15:38.574Z,7.68
2017-05-21T07:18:05.259Z,7.78
2017-05-21T07:20:31.936Z,8.72
2017-05-21T07:22:58.663Z,7.80
2017-05-21T07:25:25.350Z,8.10
2017-05-21T07:27:52.034Z,8.02
2017-05-21T07:30:18.708Z,8.32
2017-05-21T07:32:45.380Z,8.14
2017-05-21T07:35:12.061Z,7.90
2017-05-21T07:37:38.741Z,7.80
2017-05-21T07:40:05.416Z,6.94
2017-05-21T07:42:32.093Z,6.54
2017-05-21T07:44:58.772Z,7.08
2017-05-21T07:47:25.453Z,7.64
2017-05-21T07:49:52.168Z,7.48
2017-05-21T07:52:18.840Z,7.12
2017-05-21T07:54:45.521Z,6.10
2017-05-21T07:57:12.210Z,6.46
2017-05-21T07:59:38.889Z,6.88
2017-05-21T08:02:05.569Z,5.98
2017-05-21T08:04:32.244Z,6.06
2017-05-21T08:06:58.915Z,5.02
2017-05-21T08:09:25.595Z,5.06
2017-05-21T08:11:52.272Z,5.70
2017-05-21T08:14:18.957Z,6.66
2017-05-21T08:16:46.224Z,6.58
2017-05-21T08:19:12.908Z,6.32
2017-05-21T08:21:39.588Z,8.34
2017-05-21T08:24:06.270Z,9.64
2017-05-21T08:26:32.960Z,11.46
2017-05-21T08:28:59.641Z,8.18
2017-05-21T08:31:26.321Z,5.96
2017-05-21T08:33:52.993Z,6.24
2017-05-21T08:36:19.677Z,7.12
2017-05-21T08:38:46.357Z,7.50
2017-05-21T08:41:13.030Z,6.50
2017-05-21T08:43:39.704Z,6.46
2017-05-21T08:46:06.400Z,6.02
2017-05-21T08:48:33.076Z,5.56
2017-05-21T08:50:59.781Z,5.84
2017-05-21T08:53:26.455Z,5.54
2017-05-21T08:55:53.160Z,7.16
2017-05-21T08:58:19.832Z,6.06
2017-05-21T09:00:46.537Z,5.82
2017-05-21T09:03:13.212Z,6.32
2017-05-21T09:05:39.892Z,6.40
2017-05-21T09:08:06.572Z,4.72
2017-05-21T09:10:33.253Z,5.20
2017-05-21T09:12:59.964Z,6.72
2017-05-21T09:15:26.649Z,6.44
2017-05-21T09:17:53.350Z,5.28
2017-05-21T09:20:20.029Z,5.10
2017-05-21T09:22:46.741Z,6.38
2017-05-21T09:25:13.415Z,7.04
2017-05-21T09:27:40.121Z,5.40
2017-05-21T09:30:06.810Z,5.54
2017-05-21T09:32:33.484Z,5.46
2017-05-21T09:35:00.169Z,6.22
2017-05-21T09:37:26.852Z,6.12
2017-05-21T09:39:53.565Z,5.68
2017-05-21T09:42:20.249Z,6.18
2017-05-21T09:44:46.962Z,5.66
2017-05-21T09:47:13.649Z,6.32
2017-05-21T09:49:40.362Z,5.80
2017-05-21T09:52:07.040Z,5.30
2017-05-21T09:54:33.732Z,6.46
2017-05-21T09:57:00.414Z,5.84
2017-05-21T09:59:27.093Z,6.84
2017-05-21T10:01:53.792Z,7.00
2017-05-21T10:04:20.465Z,6.14
2017-05-21T10:06:47.189Z,6.24
2017-05-21T10:09:13.868Z,5.58
2017-05-21T10:11:40.569Z,5.54
2017-05-21T10:14:07.248Z,5.28
2017-05-21T10:16:33.932Z,5.72
2017-05-21T10:19:00.605Z,7.06
2017-05-21T10:21:27.288Z,4.12
2017-05-21T10:23:53.988Z,4.34
2017-05-21T10:26:20.947Z,4.82
2017-05-21T10:28:47.655Z,5.30
2017-05-21T10:31:14.338Z,5.92
2017-05-21T10:33:41.047Z,5.16
2017-05-21T10:36:07.724Z,5.30
2017-05-21T10:38:34.409Z,4.12
2017-05-21T10:41:01.088Z,3.98
2017-05-21T10:43:27.766Z,5.58
2017-05-21T10:45:54.472Z,5.50
2017-05-21T10:48:21.161Z,4.50
2017-05-21T10:50:47.865Z,4.50
2017-05-21T10:53:14.547Z,4.20
2017-05-21T10:55:41.244Z,5.24
2017-05-21T10:58:07.924Z,4.42
2017-05-21T11:00:35.454Z,5.46
2017-05-21T11:03:02.133Z,5.28
2017-05-21T11:05:28.804Z,5.62
2017-05-21T11:07:55.496Z,6.14
2017-05-21T11:10:22.174Z,5.24
2017-05-21T11:12:48.877Z,4.66
2017-05-21T11:15:15.560Z,4.56
2017-05-21T11:17:42.268Z,4.32
2017-05-21T11:20:08.944Z,4.90
2017-05-21T11:22:35.612Z,5.18
2017-05-21T11:25:02.288Z,4.80
2017-05-21T11:27:28.959Z,5.48
2017-05-21T11:29:55.629Z,3.92
2017-05-21T11:32:22.300Z,3.72
2017-05-21T11:34:48.992Z,4.78
2017-05-21T11:37:15.660Z,4.26
2017-05-21T11:39:42.364Z,4.36
2017-05-21T11:42:09.040Z,4.78
2017-05-21T11:44:35.739Z,4.60
2017-05-21T11:47:02.505Z,4.08
2017-05-21T11:49:29.176Z,5.02
2017-05-21T11:51:55.848Z,5.34
2017-05-21T11:54:22.525Z,4.08
2017-05-21T11:56:49.228Z,4.88
2017-05-21T11:59:15.904Z,4.82
2017-05-21T12:01:42.596Z,4.74
2017-05-21T12:04:09.279Z,5.08
2017-05-21T12:06:35.951Z,4.54
2017-05-21T12:09:02.656Z,5.12
2017-05-21T12:11:29.329Z,4.10
2017-05-21T12:13:56.008Z,4.48
2017-05-21T12:16:22.684Z,4.38
2017-05-21T12:18:49.382Z,4.52
2017-05-21T12:21:16.055Z,4.60
2017-05-21T12:23:42.765Z,3.40
2017-05-21T12:26:09.444Z,4.56
2017-05-21T12:28:36.121Z,4.66
2017-05-21T12:31:02.820Z,4.12
2017-05-21T12:33:29.533Z,4.94
2017-05-21T12:35:56.206Z,4.44
2017-05-21T12:38:22.883Z,4.54
2017-05-21T12:40:49.557Z,4.28
2017-05-21T12:43:16.252Z,4.82
2017-05-21T12:45:42.925Z,4.10
2017-05-21T12:48:09.640Z,4.80
2017-05-21T12:50:36.320Z,4.78
2017-05-21T12:53:03.000Z,4.22
2017-05-21T12:55:29.685Z,3.80
2017-05-21T12:57:56.379Z,4.10
2017-05-21T13:00:23.075Z,4.36
2017-05-21T13:02:49.745Z,4.04
2017-05-21T13:05:16.469Z,3.70
2017-05-21T13:07:43.149Z,4.40
2017-05-21T13:10:09.826Z,4.12
2017-05-21T13:12:36.506Z,3.18
2017-05-21T13:15:03.191Z,4.66
2017-05-21T13:17:29.875Z,4.24
2017-05-21T13:19:56.552Z,4.16
2017-05-21T13:22:23.252Z,4.42
2017-05-21T13:24:49.987Z,3.60
2017-05-21T13:27:16.708Z,3.50
2017-05-21T13:29:43.381Z,4.02
2017-05-21T13:32:10.053Z,4.56
2017-05-21T13:34:36.725Z,4.92
2017-05-21T13:37:03.400Z,4.00
2017-05-21T13:39:30.081Z,4.32
2017-05-21T13:41:56.752Z,3.64
2017-05-21T13:44:23.444Z,4.18
2017-05-21T13:46:50.137Z,4.54
2017-05-21T13:49:16.843Z,3.78
2017-05-21T13:51:43.512Z,3.34
2017-05-21T13:54:10.189Z,3.82
2017-05-21T13:56:36.860Z,3.24
2017-05-21T13:59:03.544Z,2.68
2017-05-21T14:01:30.242Z,3.88
2017-05-21T14:03:56.912Z,3.20
2017-05-21T14:06:23.589Z,3.86
2017-05-21T14:08:50.289Z,3.50
2017-05-21T14:11:17.397Z,3.76
2017-05-21T14:13:44.074Z,3.94
2017-05-21T14:16:10.748Z,3.10
2017-05-21T14:18:37.436Z,3.46
2017-05-21T14:21:04.104Z,3.80
2017-05-21T14:23:30.780Z,3.32
2017-05-21T14:25:57.456Z,3.46
2017-05-21T14:28:24.127Z,3.10
2017-05-21T14:30:50.815Z,2.94
2017-05-21T14:33:17.500Z,3.30
2017-05-21T14:35:44.178Z,3.40
2017-05-21T14:38:10.884Z,2.88
2017-05-21T14:40:37.560Z,2.88
2017-05-21T14:43:04.233Z,3.14
2017-05-21T14:45:30.904Z,3.12
2017-05-21T14:47:57.573Z,3.86
2017-05-21T14:50:24.248Z,3.02
2017-05-21T14:52:50.913Z,2.90
2017-05-21T14:55:17.592Z,3.22
2017-05-21T14:57:44.271Z,3.38
2017-05-21T15:00:10.944Z,2.86
2017-05-21T15:02:37.645Z,3.00
2017-05-21T15:05:04.315Z,3.48
2017-05-21T15:07:31.024Z,3.66
2017-05-21T15:09:57.696Z,3.10
2017-05-21T15:12:24.364Z,2.96
2017-05-21T15:14:51.041Z,2.98
2017-05-21T15:17:17.710Z,3.32
2017-05-21T15:19:44.385Z,3.22
2017-05-21T15:22:11.065Z,3.06
2017-05-21T15:24:37.759Z,2.98
2017-05-21T15:27:04.436Z,2.90
2017-05-21T15:29:31.141Z,3.30
2017-05-21T15:31:57.820Z,3.12
2017-05-21T15:34:24.516Z,3.70
2017-05-21T15:36:51.190Z,3.00
2017-05-21T15:39:17.868Z,2.82
2017-05-21T15:41:44.545Z,3.40
2017-05-21T15:44:11.216Z,3.06
2017-05-21T15:46:37.889Z,3.16
2017-05-21T15:49:04.556Z,3.50
2017-05-21T15:51:31.274Z,3.48
2017-05-21T15:53:57.944Z,3.34
2017-05-21T15:56:24.646Z,3.54
2017-05-21T15:58:51.319Z,2.84
2017-05-21T16:01:18.028Z,3.74
2017-05-21T16:03:44.701Z,3.54
2017-05-21T16:06:11.373Z,2.86
2017-05-21T16:08:38.064Z,2.86
2017-05-21T16:11:04.732Z,2.94
2017-05-21T16:13:31.414Z,4.24
2017-05-21T16:15:58.092Z,3.62
2017-05-21T16:18:24.765Z,3.32
2017-05-21T16:20:51.442Z,3.06
2017-05-21T16:23:18.128Z,3.92
2017-05-21T16:25:44.812Z,3.30
2017-05-21T16:28:11.524Z,2.80
2017-05-21T16:30:38.221Z,4.05
2017-05-21T16:33:04.900Z,3.16
2017-05-21T16:35:31.597Z,3.50
2017-05-21T16:37:58.265Z,3.40
2017-05-21T16:40:24.941Z,4.96
2017-05-21T16:42:51.623Z,3.90
2017-05-21T16:45:18.689Z,5.97
2017-05-21T16:47:45.432Z,4.22
2017-05-21T16:50:12.781Z,3.27
2017-05-21T16:52:39.452Z,5.16
2017-05-21T16:55:06.143Z,3.70
2017-05-21T16:57:32.820Z,3.52
2017-05-21T16:59:59.521Z,2.83
2017-05-21T17:02:26.208Z,2.97
2017-05-21T17:04:52.896Z,3.08
2017-05-21T17:07:19.581Z,3.00
2017-05-21T17:09:46.259Z,4.56
2017-05-21T17:12:13.002Z,3.53
2017-05-21T17:14:39.667Z,4.00
2017-05-21T17:17:06.356Z,3.08
2017-05-21T17:19:33.035Z,2.98
2017-05-21T17:21:59.716Z,3.70
2017-05-21T17:24:26.402Z,3.18
2017-05-21T17:26:53.089Z,3.55
2017-05-21T17:29:19.787Z,2.88
2017-05-21T17:31:46.464Z,4.23
2017-05-21T17:34:13.189Z,4.10
2017-05-21T17:36:39.873Z,3.37
2017-05-21T17:39:06.599Z,3.17
2017-05-21T17:41:33.289Z,2.98
2017-05-21T17:43:59.978Z,2.85
2017-05-21T17:46:26.660Z,3.83
2017-05-21T17:48:53.342Z,3.52
2017-05-21T17:51:20.028Z,3.17
2017-05-21T17:53:46.705Z,3.00
2017-05-21T17:56:13.408Z,3.55
2017-05-21T17:58:40.097Z,3.35
2017-05-21T18:01:06.814Z,2.90
2017-05-21T18:03:33.504Z,3.10
2017-05-21T18:06:00.194Z,2.72
2017-05-21T18:08:26.897Z,5.38
2017-05-21T18:10:53.630Z,3.88
2017-05-21T18:13:20.319Z,5.95
2017-05-21T18:15:47.001Z,3.48
2017-05-21T18:18:13.800Z,2.88
2017-05-21T18:20:40.471Z,3.23
2017-05-21T18:23:07.177Z,3.77
2017-05-21T18:25:33.856Z,4.62
2017-05-21T18:28:00.527Z,3.43
2017-05-21T18:30:27.205Z,2.95
2017-05-21T18:32:53.876Z,2.88
2017-05-21T18:35:20.597Z,3.35
2017-05-21T18:37:47.269Z,3.32
2017-05-21T18:40:13.980Z,3.83
2017-05-21T18:42:40.721Z,2.78
2017-05-21T18:45:07.415Z,3.33
2017-05-21T18:47:34.107Z,2.93
2017-05-21T18:50:00.849Z,3.37
2017-05-21T18:52:27.545Z,3.00
2017-05-21T18:54:54.221Z,4.48
2017-05-21T18:57:20.896Z,3.53
2017-05-21T18:59:47.640Z,3.57
2017-05-21T19:02:14.340Z,3.50
2017-05-21T19:04:41.070Z,2.95
2017-05-21T19:07:07.748Z,3.13
2017-05-21T19:09:34.435Z,3.22
2017-05-21T19:12:01.141Z,3.27
2017-05-21T19:14:27.817Z,2.80
2017-05-21T19:16:54.492Z,3.55
2017-05-21T19:19:21.194Z,3.50
2017-05-21T19:21:47.884Z,3.43
2017-05-21T19:24:14.584Z,3.07
2017-05-21T19:26:41.260Z,3.65
2017-05-21T19:29:07.947Z,8.12
2017-05-21T19:31:34.656Z,10.17
2017-05-21T19:34:01.335Z,8.05
2017-05-21T19:36:28.024Z,7.77
2017-05-21T19:38:54.706Z,9.65
2017-05-21T19:41:21.411Z,9.78
2017-05-21T19:43:48.089Z,11.52
2017-05-21T19:46:14.796Z,9.68
2017-05-21T19:48:41.476Z,8.50
2017-05-21T19:51:08.153Z,8.72
2017-05-21T19:53:34.831Z,9.47
2017-05-21T19:56:01.513Z,7.87
2017-05-21T19:58:28.185Z,7.88
2017-05-21T20:00:54.863Z,8.92
2017-05-21T20:03:21.568Z,9.48
2017-05-21T20:05:48.243Z,8.52
2017-05-21T20:08:14.926Z,7.83
2017-05-21T20:10:41.611Z,7.58
2017-05-21T20:13:08.284Z,7.88
2017-05-21T20:15:34.961Z,10.08
2017-05-21T20:18:01.652Z,8.83
2017-05-21T20:20:28.332Z,10.88
2017-05-21T20:22:55.028Z,10.22
2017-05-21T20:25:21.709Z,9.15
2017-05-21T20:27:48.386Z,7.78
2017-05-21T20:30:15.112Z,8.03
2017-05-21T20:32:41.792Z,8.07
2017-05-21T20:35:08.476Z,6.80
2017-05-21T20:37:35.164Z,12.25
2017-05-21T20:40:01.836Z,8.30
2017-05-21T20:42:28.535Z,6.35
2017-05-21T20:44:55.216Z,8.23
2017-05-21T20:47:21.924Z,9.32
2017-05-21T20:49:48.601Z,9.57
2017-05-21T20:52:15.328Z,11.08
2017-05-21T20:54:42.016Z,10.68
2017-05-21T20:57:08.732Z,10.53
2017-05-21T20:59:35.410Z,8.55
2017-05-21T21:02:02.088Z,9.05
2017-05-21T21:04:28.792Z,9.12
2017-05-21T21:06:55.476Z,9.67
2017-05-21T21:09:22.241Z,8.43
2017-05-21T21:11:48.923Z,9.73
2017-05-21T21:14:15.681Z,9.67
2017-05-21T21:16:42.355Z,8.58
2017-05-21T21:19:09.093Z,9.17
2017-05-21T21:21:35.778Z,10.28
2017-05-21T21:24:02.456Z,9.43
2017-05-21T21:26:29.154Z,9.77
2017-05-21T21:28:55.858Z,10.35
2017-05-21T21:31:22.583Z,9.78
2017-05-21T21:33:49.293Z,8.80
2017-05-21T21:36:15.996Z,10.03
2017-05-21T21:38:42.682Z,11.02
2017-05-21T21:41:09.365Z,10.17
2017-05-21T21:43:36.052Z,10.42
2017-05-21T21:46:02.733Z,11.02
2017-05-21T21:48:29.416Z,10.82
2017-05-21T21:50:56.110Z,11.73
2017-05-21T21:53:22.824Z,10.75
2017-05-21T21:55:49.494Z,9.95
2017-05-21T21:58:16.225Z,12.77
2017-05-21T22:00:42.914Z,10.80
2017-05-21T22:03:09.638Z,11.50
2017-05-21T22:05:36.316Z,10.85
2017-05-21T22:08:03.013Z,11.55
2017-05-21T22:10:29.696Z,10.33
2017-05-21T22:12:56.397Z,11.40
2017-05-21T22:15:23.085Z,11.10
2017-05-21T22:17:49.772Z,11.38
2017-05-21T22:20:16.479Z,12.58
2017-05-21T22:22:43.161Z,12.07
2017-05-21T22:25:09.879Z,11.68
2017-05-21T22:27:36.568Z,12.75
2017-05-21T22:30:03.258Z,12.35
2017-05-21T22:32:29.944Z,12.65
2017-05-21T22:34:56.876Z,13.02
2017-05-21T22:37:23.557Z,12.63
2017-05-21T22:39:50.246Z,13.58
2017-05-21T22:42:16.932Z,12.63
2017-05-21T22:44:43.633Z,13.07
2017-05-21T22:47:10.357Z,13.85
2017-05-21T22:49:37.042Z,14.53
2017-05-21T22:52:03.728Z,12.35
2017-05-21T22:54:30.416Z,13.43
2017-05-21T22:56:57.108Z,13.48
2017-05-21T22:59:23.794Z,13.28
2017-05-21T23:01:50.484Z,12.72
2017-05-21T23:04:17.168Z,11.93
2017-05-21T23:06:43.852Z,13.10
2017-05-21T23:09:10.561Z,12.85
2017-05-21T23:11:37.249Z,14.03
2017-05-21T23:14:04.224Z,14.13
2017-05-21T23:16:30.912Z,13.80
2017-05-21T23:18:57.612Z,13.73
2017-05-21T23:21:24.298Z,13.70
2017-05-21T23:23:50.997Z,13.98
2017-05-21T23:26:17.683Z,13.82
2017-05-21T23:28:44.369Z,14.92
2017-05-21T23:31:11.066Z,13.03
2017-05-21T23:33:37.761Z,13.62
2017-05-21T23:36:04.477Z,14.67
2017-05-21T23:38:31.157Z,13.82
2017-05-21T23:40:57.843Z,14.43
2017-05-21T23:43:24.527Z,13.00
2017-05-21T23:45:51.212Z,13.25
2017-05-21T23:48:17.898Z,14.45
2017-05-21T23:50:44.580Z,13.52
2017-05-21T23:53:11.261Z,15.13
2017-05-21T23:55:37.945Z,14.18
2017-05-21T23:58:04.629Z,14.15
